Bellville, South Africa
Current Conditions -  °F | °C
As of 10:00 PM on Tuesday 25 Nov 2014 (Local Time) from FACT Reporting Station
Clear Clear  
Wind Chill: 70°   Ceiling: Unl
Heat Index: 70°   Visibility: 6mi
Dew Point: 57°   Wind: 9mph
Humidity: 64%   Direction: 150°SSE
Pressure: 29.77"   Gusts: NA
Location:  33.88°S, 18.6°E
Report Text: FACT 252000Z 15008KT CAVOK 21/14 Q1008 NOSIG
Loading
Personal Weather Stations






























Interactive Weather Map New forecast layout! Learn more

10-Day Weather Forecast

Advertisements
Track Severe Weather on mobile